sensor_id;sensor_type;location;lat;lon;timestamp;P1;durP1;ratioP1;P2;durP2;ratioP2
76995;SDS011;65929;49.062;10.338;2023-04-06T00:00:27;8.50;;;5.65;;
76995;SDS011;65929;49.062;10.338;2023-04-06T00:01:51;10.00;;;5.88;;
76995;SDS011;65929;49.062;10.338;2023-04-06T00:02:52;10.75;;;6.15;;
76995;SDS011;65929;49.062;10.338;2023-04-06T00:03:53;11.90;;;6.65;;
76995;SDS011;65929;49.062;10.338;2023-04-06T00:04:54;10.25;;;6.95;;
76995;SDS011;65929;49.062;10.338;2023-04-06T00:05:55;10.65;;;5.75;;
76995;SDS011;65929;49.062;10.338;2023-04-06T00:06:56;9.57;;;5.68;;
76995;SDS011;65929;49.062;10.338;2023-04-06T00:07:59;12.43;;;7.28;;
76995;SDS011;65929;49.062;10.338;2023-04-06T00:09:00;8.77;;;6.35;;
76995;SDS011;65929;49.062;10.338;2023-04-06T00:10:02;11.23;;;6.47;;
76995;SDS011;65929;49.062;10.338;2023-04-06T00:11:03;9.82;;;5.93;;
76995;SDS011;65929;49.062;10.338;2023-04-06T00:12:05;8.90;;;6.13;;
76995;SDS011;65929;49.062;10.338;2023-04-06T00:13:06;12.23;;;6.25;;
76995;SDS011;65929;49.062;10.338;2023-04-06T00:14:07;12.32;;;6.60;;
76995;SDS011;65929;49.062;10.338;2023-04-06T00:15:09;12.23;;;7.38;;
76995;SDS011;65929;49.062;10.338;2023-04-06T00:16:11;10.00;;;6.45;;
76995;SDS011;65929;49.062;10.338;2023-04-06T00:17:32;9.88;;;6.15;;
76995;SDS011;65929;49.062;10.338;2023-04-06T00:18:33;8.27;;;6.50;;
76995;SDS011;65929;49.062;10.338;2023-04-06T00:19:35;10.60;;;6.70;;
76995;SDS011;65929;49.062;10.338;2023-04-06T00:20:36;11.02;;;6.50;;
76995;SDS011;65929;49.062;10.338;2023-04-06T00:21:37;12.60;;;6.03;;
76995;SDS011;65929;49.062;10.338;2023-04-06T00:22:38;11.40;;;6.20;;
76995;SDS011;65929;49.062;10.338;2023-04-06T00:23:54;10.63;;;6.57;;
76995;SDS011;65929;49.062;10.338;2023-04-06T00:24:55;10.35;;;6.57;;
76995;SDS011;65929;49.062;10.338;2023-04-06T00:25:56;9.73;;;6.05;;
76995;SDS011;65929;49.062;10.338;2023-04-06T00:27:00;9.38;;;6.15;;
76995;SDS011;65929;49.062;10.338;2023-04-06T00:28:02;12.00;;;6.32;;
76995;SDS011;65929;49.062;10.338;2023-04-06T00:29:06;11.73;;;6.55;;
76995;SDS011;65929;49.062;10.338;2023-04-06T00:30:10;11.98;;;6.47;;
76995;SDS011;65929;49.062;10.338;2023-04-06T00:31:22;12.10;;;7.00;;
76995;SDS011;65929;49.062;10.338;2023-04-06T00:32:23;14.18;;;6.50;;
76995;SDS011;65929;49.062;10.338;2023-04-06T00:33:27;10.27;;;6.97;;
76995;SDS011;65929;49.062;10.338;2023-04-06T00:34:28;11.88;;;6.28;;
76995;SDS011;65929;49.062;10.338;2023-04-06T00:35:29;11.73;;;6.90;;
76995;SDS011;65929;49.062;10.338;2023-04-06T00:36:41;11.20;;;6.78;;
76995;SDS011;65929;49.062;10.338;2023-04-06T00:37:42;9.98;;;7.05;;
76995;SDS011;65929;49.062;10.338;2023-04-06T00:38:47;10.32;;;6.75;;
76995;SDS011;65929;49.062;10.338;2023-04-06T00:39:48;10.50;;;6.22;;
76995;SDS011;65929;49.062;10.338;2023-04-06T00:40:51;12.18;;;6.90;;
76995;SDS011;65929;49.062;10.338;2023-04-06T00:41:52;10.98;;;6.45;;
76995;SDS011;65929;49.062;10.338;2023-04-06T00:42:55;11.25;;;6.90;;
76995;SDS011;65929;49.062;10.338;2023-04-06T00:43:56;14.55;;;7.28;;
76995;SDS011;65929;49.062;10.338;2023-04-06T00:44:57;14.60;;;7.20;;
76995;SDS011;65929;49.062;10.338;2023-04-06T00:46:02;12.10;;;6.53;;
76995;SDS011;65929;49.062;10.338;2023-04-06T00:47:03;12.23;;;6.80;;
76995;SDS011;65929;49.062;10.338;2023-04-06T00:48:05;11.77;;;6.13;;
76995;SDS011;65929;49.062;10.338;2023-04-06T00:49:06;11.70;;;7.43;;
76995;SDS011;65929;49.062;10.338;2023-04-06T00:50:07;12.45;;;7.53;;
76995;SDS011;65929;49.062;10.338;2023-04-06T00:51:08;13.75;;;7.28;;
76995;SDS011;65929;49.062;10.338;2023-04-06T00:52:10;13.93;;;7.70;;
76995;SDS011;65929;49.062;10.338;2023-04-06T00:53:11;13.85;;;7.63;;
76995;SDS011;65929;49.062;10.338;2023-04-06T00:54:13;13.07;;;7.05;;
76995;SDS011;65929;49.062;10.338;2023-04-06T00:55:14;12.02;;;7.20;;
76995;SDS011;65929;49.062;10.338;2023-04-06T00:56:15;15.30;;;7.60;;
76995;SDS011;65929;49.062;10.338;2023-04-06T00:57:17;10.90;;;7.07;;
76995;SDS011;65929;49.062;10.338;2023-04-06T00:58:18;12.20;;;7.03;;
76995;SDS011;65929;49.062;10.338;2023-04-06T00:59:19;13.10;;;7.28;;
76995;SDS011;65929;49.062;10.338;2023-04-06T01:00:20;16.95;;;8.02;;
76995;SDS011;65929;49.062;10.338;2023-04-06T01:01:22;13.30;;;7.65;;
76995;SDS011;65929;49.062;10.338;2023-04-06T01:02:24;16.10;;;7.85;;
76995;SDS011;65929;49.062;10.338;2023-04-06T01:03:25;11.48;;;7.13;;
76995;SDS011;65929;49.062;10.338;2023-04-06T01:04:26;12.82;;;7.32;;
76995;SDS011;65929;49.062;10.338;2023-04-06T01:05:28;12.43;;;7.13;;
76995;SDS011;65929;49.062;10.338;2023-04-06T01:06:29;16.95;;;7.57;;
76995;SDS011;65929;49.062;10.338;2023-04-06T01:07:30;12.23;;;7.00;;
76995;SDS011;65929;49.062;10.338;2023-04-06T01:08:31;13.38;;;7.22;;
76995;SDS011;65929;49.062;10.338;2023-04-06T01:09:33;12.13;;;7.38;;
76995;SDS011;65929;49.062;10.338;2023-04-06T01:10:35;11.18;;;7.50;;
76995;SDS011;65929;49.062;10.338;2023-04-06T01:11:36;16.15;;;8.07;;
76995;SDS011;65929;49.062;10.338;2023-04-06T01:12:37;12.77;;;7.30;;
76995;SDS011;65929;49.062;10.338;2023-04-06T01:13:38;12.30;;;7.97;;
76995;SDS011;65929;49.062;10.338;2023-04-06T01:14:39;12.40;;;7.53;;
76995;SDS011;65929;49.062;10.338;2023-04-06T01:15:41;12.80;;;7.47;;
76995;SDS011;65929;49.062;10.338;2023-04-06T01:16:42;11.88;;;7.40;;
76995;SDS011;65929;49.062;10.338;2023-04-06T01:17:43;11.75;;;6.93;;
76995;SDS011;65929;49.062;10.338;2023-04-06T01:18:45;14.23;;;7.60;;
76995;SDS011;65929;49.062;10.338;2023-04-06T01:19:46;11.30;;;7.75;;
76995;SDS011;65929;49.062;10.338;2023-04-06T01:20:49;11.93;;;7.47;;
76995;SDS011;65929;49.062;10.338;2023-04-06T01:21:50;11.70;;;7.35;;
76995;SDS011;65929;49.062;10.338;2023-04-06T01:22:54;12.45;;;6.72;;
76995;SDS011;65929;49.062;10.338;2023-04-06T01:23:55;14.15;;;7.88;;
76995;SDS011;65929;49.062;10.338;2023-04-06T01:24:56;12.30;;;7.03;;
76995;SDS011;65929;49.062;10.338;2023-04-06T01:25:57;10.77;;;6.80;;
76995;SDS011;65929;49.062;10.338;2023-04-06T01:26:59;13.02;;;6.63;;
76995;SDS011;65929;49.062;10.338;2023-04-06T01:28:01;10.75;;;7.15;;
76995;SDS011;65929;49.062;10.338;2023-04-06T01:29:02;13.80;;;7.15;;
76995;SDS011;65929;49.062;10.338;2023-04-06T01:30:04;11.68;;;6.53;;
76995;SDS011;65929;49.062;10.338;2023-04-06T01:31:06;10.82;;;6.95;;
76995;SDS011;65929;49.062;10.338;2023-04-06T01:32:08;12.60;;;7.63;;
76995;SDS011;65929;49.062;10.338;2023-04-06T01:33:09;10.85;;;7.28;;
76995;SDS011;65929;49.062;10.338;2023-04-06T01:34:10;13.10;;;6.80;;
76995;SDS011;65929;49.062;10.338;2023-04-06T01:35:11;12.15;;;6.82;;
76995;SDS011;65929;49.062;10.338;2023-04-06T01:36:12;12.55;;;7.38;;
76995;SDS011;65929;49.062;10.338;2023-04-06T01:37:13;13.88;;;7.68;;
76995;SDS011;65929;49.062;10.338;2023-04-06T01:38:16;10.63;;;7.20;;
76995;SDS011;65929;49.062;10.338;2023-04-06T01:39:17;12.32;;;6.65;;
76995;SDS011;65929;49.062;10.338;2023-04-06T01:40:19;11.40;;;6.13;;
76995;SDS011;65929;49.062;10.338;2023-04-06T01:41:20;9.88;;;6.32;;
76995;SDS011;65929;49.062;10.338;2023-04-06T01:42:21;15.48;;;6.18;;
76995;SDS011;65929;49.062;10.338;2023-04-06T01:43:22;11.63;;;6.95;;
76995;SDS011;65929;49.062;10.338;2023-04-06T01:44:24;11.13;;;7.28;;
76995;SDS011;65929;49.062;10.338;2023-04-06T01:45:25;12.55;;;7.90;;
76995;SDS011;65929;49.062;10.338;2023-04-06T01:46:26;11.77;;;6.88;;
76995;SDS011;65929;49.062;10.338;2023-04-06T01:47:27;11.80;;;6.93;;
76995;SDS011;65929;49.062;10.338;2023-04-06T01:48:28;9.43;;;6.95;;
76995;SDS011;65929;49.062;10.338;2023-04-06T01:49:29;12.95;;;6.90;;
76995;SDS011;65929;49.062;10.338;2023-04-06T01:50:30;13.15;;;6.85;;
76995;SDS011;65929;49.062;10.338;2023-04-06T01:51:31;11.85;;;6.90;;
76995;SDS011;65929;49.062;10.338;2023-04-06T01:52:32;11.18;;;6.18;;
76995;SDS011;65929;49.062;10.338;2023-04-06T01:53:35;12.98;;;7.53;;
76995;SDS011;65929;49.062;10.338;2023-04-06T01:54:36;11.40;;;7.57;;
76995;SDS011;65929;49.062;10.338;2023-04-06T01:55:37;12.82;;;6.95;;
76995;SDS011;65929;49.062;10.338;2023-04-06T01:56:38;12.77;;;7.57;;
76995;SDS011;65929;49.062;10.338;2023-04-06T01:57:39;13.60;;;6.93;;
76995;SDS011;65929;49.062;10.338;2023-04-06T01:58:40;13.52;;;7.32;;
76995;SDS011;65929;49.062;10.338;2023-04-06T01:59:41;12.20;;;7.68;;
76995;SDS011;65929;49.062;10.338;2023-04-06T02:00:42;15.18;;;8.15;;
76995;SDS011;65929;49.062;10.338;2023-04-06T02:01:43;13.30;;;7.25;;
76995;SDS011;65929;49.062;10.338;2023-04-06T02:02:44;13.00;;;7.53;;
76995;SDS011;65929;49.062;10.338;2023-04-06T02:03:45;15.43;;;7.93;;
76995;SDS011;65929;49.062;10.338;2023-04-06T02:04:46;12.55;;;7.00;;
76995;SDS011;65929;49.062;10.338;2023-04-06T02:05:47;15.30;;;8.48;;
76995;SDS011;65929;49.062;10.338;2023-04-06T02:06:48;15.52;;;8.05;;
76995;SDS011;65929;49.062;10.338;2023-04-06T02:07:49;14.38;;;8.48;;
76995;SDS011;65929;49.062;10.338;2023-04-06T02:08:53;14.20;;;8.88;;
76995;SDS011;65929;49.062;10.338;2023-04-06T02:09:54;15.93;;;8.80;;
76995;SDS011;65929;49.062;10.338;2023-04-06T02:10:56;15.05;;;8.88;;
76995;SDS011;65929;49.062;10.338;2023-04-06T02:11:57;13.02;;;8.90;;
76995;SDS011;65929;49.062;10.338;2023-04-06T02:12:58;16.00;;;8.80;;
76995;SDS011;65929;49.062;10.338;2023-04-06T02:13:59;15.00;;;8.65;;
76995;SDS011;65929;49.062;10.338;2023-04-06T02:15:01;14.68;;;9.50;;
76995;SDS011;65929;49.062;10.338;2023-04-06T02:16:02;15.65;;;8.95;;
76995;SDS011;65929;49.062;10.338;2023-04-06T02:17:03;15.38;;;9.57;;
76995;SDS011;65929;49.062;10.338;2023-04-06T02:18:04;19.25;;;10.02;;
76995;SDS011;65929;49.062;10.338;2023-04-06T02:19:05;13.95;;;8.82;;
76995;SDS011;65929;49.062;10.338;2023-04-06T02:20:06;16.75;;;8.95;;
76995;SDS011;65929;49.062;10.338;2023-04-06T02:21:08;14.18;;;8.85;;
76995;SDS011;65929;49.062;10.338;2023-04-06T02:22:09;13.95;;;8.32;;
76995;SDS011;65929;49.062;10.338;2023-04-06T02:23:10;14.60;;;8.60;;
76995;SDS011;65929;49.062;10.338;2023-04-06T02:24:15;15.60;;;8.10;;
76995;SDS011;65929;49.062;10.338;2023-04-06T02:25:17;14.18;;;7.10;;
76995;SDS011;65929;49.062;10.338;2023-04-06T02:26:18;13.90;;;8.10;;
76995;SDS011;65929;49.062;10.338;2023-04-06T02:27:19;12.80;;;7.60;;
76995;SDS011;65929;49.062;10.338;2023-04-06T02:28:20;15.30;;;8.40;;
76995;SDS011;65929;49.062;10.338;2023-04-06T02:29:21;15.25;;;8.23;;
76995;SDS011;65929;49.062;10.338;2023-04-06T02:30:22;14.98;;;8.27;;
76995;SDS011;65929;49.062;10.338;2023-04-06T02:31:23;15.15;;;8.38;;
76995;SDS011;65929;49.062;10.338;2023-04-06T02:32:24;14.18;;;7.60;;
76995;SDS011;65929;49.062;10.338;2023-04-06T02:33:25;11.65;;;7.50;;
76995;SDS011;65929;49.062;10.338;2023-04-06T02:34:26;14.45;;;7.85;;
76995;SDS011;65929;49.062;10.338;2023-04-06T02:35:27;12.88;;;7.50;;
76995;SDS011;65929;49.062;10.338;2023-04-06T02:36:29;12.60;;;7.85;;
76995;SDS011;65929;49.062;10.338;2023-04-06T02:37:30;13.02;;;7.75;;
76995;SDS011;65929;49.062;10.338;2023-04-06T02:38:31;11.63;;;7.05;;
76995;SDS011;65929;49.062;10.338;2023-04-06T02:39:34;11.88;;;7.50;;
76995;SDS011;65929;49.062;10.338;2023-04-06T02:40:35;13.88;;;7.72;;
76995;SDS011;65929;49.062;10.338;2023-04-06T02:41:36;13.48;;;7.22;;
76995;SDS011;65929;49.062;10.338;2023-04-06T02:42:37;13.63;;;7.70;;
76995;SDS011;65929;49.062;10.338;2023-04-06T02:43:38;13.30;;;6.80;;
76995;SDS011;65929;49.062;10.338;2023-04-06T02:44:39;13.77;;;7.13;;
76995;SDS011;65929;49.062;10.338;2023-04-06T02:45:39;12.88;;;7.05;;
76995;SDS011;65929;49.062;10.338;2023-04-06T02:46:41;14.57;;;7.93;;
76995;SDS011;65929;49.062;10.338;2023-04-06T02:47:42;14.80;;;7.45;;
76995;SDS011;65929;49.062;10.338;2023-04-06T02:48:42;14.55;;;6.78;;
76995;SDS011;65929;49.062;10.338;2023-04-06T02:49:44;10.98;;;6.90;;
76995;SDS011;65929;49.062;10.338;2023-04-06T02:50:45;15.75;;;7.43;;
76995;SDS011;65929;49.062;10.338;2023-04-06T02:51:46;11.82;;;6.60;;
76995;SDS011;65929;49.062;10.338;2023-04-06T02:52:47;10.13;;;6.32;;
76995;SDS011;65929;49.062;10.338;2023-04-06T02:53:48;13.90;;;7.07;;
76995;SDS011;65929;49.062;10.338;2023-04-06T02:54:50;12.38;;;7.28;;
76995;SDS011;65929;49.062;10.338;2023-04-06T02:55:51;12.52;;;6.63;;
76995;SDS011;65929;49.062;10.338;2023-04-06T02:56:52;11.73;;;7.50;;
76995;SDS011;65929;49.062;10.338;2023-04-06T02:57:53;10.98;;;6.55;;
76995;SDS011;65929;49.062;10.338;2023-04-06T02:58:54;12.25;;;6.90;;
76995;SDS011;65929;49.062;10.338;2023-04-06T02:59:55;12.88;;;7.57;;
76995;SDS011;65929;49.062;10.338;2023-04-06T03:00:56;12.90;;;7.82;;
76995;SDS011;65929;49.062;10.338;2023-04-06T03:01:57;13.13;;;7.40;;
76995;SDS011;65929;49.062;10.338;2023-04-06T03:02:58;12.88;;;7.30;;
76995;SDS011;65929;49.062;10.338;2023-04-06T03:03:59;13.35;;;7.32;;
76995;SDS011;65929;49.062;10.338;2023-04-06T03:05:00;13.60;;;6.32;;
76995;SDS011;65929;49.062;10.338;2023-04-06T03:06:03;10.63;;;6.68;;
76995;SDS011;65929;49.062;10.338;2023-04-06T03:07:04;12.35;;;6.72;;
76995;SDS011;65929;49.062;10.338;2023-04-06T03:08:06;9.65;;;6.38;;
76995;SDS011;65929;49.062;10.338;2023-04-06T03:09:07;10.05;;;5.45;;
76995;SDS011;65929;49.062;10.338;2023-04-06T03:10:09;10.85;;;6.72;;
76995;SDS011;65929;49.062;10.338;2023-04-06T03:11:11;12.73;;;6.63;;
76995;SDS011;65929;49.062;10.338;2023-04-06T03:12:12;9.82;;;6.35;;
76995;SDS011;65929;49.062;10.338;2023-04-06T03:13:13;12.93;;;6.63;;
76995;SDS011;65929;49.062;10.338;2023-04-06T03:14:14;12.10;;;6.63;;
76995;SDS011;65929;49.062;10.338;2023-04-06T03:15:17;13.43;;;6.13;;
76995;SDS011;65929;49.062;10.338;2023-04-06T03:16:18;11.15;;;6.40;;
76995;SDS011;65929;49.062;10.338;2023-04-06T03:17:19;11.30;;;6.82;;
76995;SDS011;65929;49.062;10.338;2023-04-06T03:18:21;10.45;;;6.15;;
76995;SDS011;65929;49.062;10.338;2023-04-06T03:19:23;11.60;;;6.28;;
76995;SDS011;65929;49.062;10.338;2023-04-06T03:20:24;11.05;;;6.18;;
76995;SDS011;65929;49.062;10.338;2023-04-06T03:21:25;10.73;;;5.97;;
76995;SDS011;65929;49.062;10.338;2023-04-06T03:22:26;9.77;;;5.75;;
76995;SDS011;65929;49.062;10.338;2023-04-06T03:23:27;12.82;;;6.78;;
76995;SDS011;65929;49.062;10.338;2023-04-06T03:24:28;9.23;;;5.85;;
76995;SDS011;65929;49.062;10.338;2023-04-06T03:25:31;9.60;;;5.43;;
76995;SDS011;65929;49.062;10.338;2023-04-06T03:26:32;14.98;;;6.25;;
76995;SDS011;65929;49.062;10.338;2023-04-06T03:27:33;11.45;;;6.47;;
76995;SDS011;65929;49.062;10.338;2023-04-06T03:28:34;15.38;;;6.55;;
76995;SDS011;65929;49.062;10.338;2023-04-06T03:29:35;11.50;;;5.70;;
76995;SDS011;65929;49.062;10.338;2023-04-06T03:30:36;12.45;;;6.80;;
76995;SDS011;65929;49.062;10.338;2023-04-06T03:31:37;10.00;;;5.93;;
76995;SDS011;65929;49.062;10.338;2023-04-06T03:32:38;12.75;;;6.22;;
76995;SDS011;65929;49.062;10.338;2023-04-06T03:33:39;8.93;;;5.90;;
76995;SDS011;65929;49.062;10.338;2023-04-06T03:34:40;10.95;;;6.38;;
76995;SDS011;65929;49.062;10.338;2023-04-06T03:35:41;13.05;;;6.45;;
76995;SDS011;65929;49.062;10.338;2023-04-06T03:36:42;12.00;;;6.10;;
76995;SDS011;65929;49.062;10.338;2023-04-06T03:37:43;11.27;;;6.03;;
76995;SDS011;65929;49.062;10.338;2023-04-06T03:38:45;10.60;;;6.38;;
76995;SDS011;65929;49.062;10.338;2023-04-06T03:39:46;12.35;;;6.35;;
76995;SDS011;65929;49.062;10.338;2023-04-06T03:40:48;16.00;;;6.43;;
76995;SDS011;65929;49.062;10.338;2023-04-06T03:41:49;12.10;;;6.03;;
76995;SDS011;65929;49.062;10.338;2023-04-06T03:42:50;13.60;;;6.93;;
76995;SDS011;65929;49.062;10.338;2023-04-06T03:43:52;13.30;;;6.05;;
76995;SDS011;65929;49.062;10.338;2023-04-06T03:44:53;12.00;;;6.28;;
76995;SDS011;65929;49.062;10.338;2023-04-06T03:45:54;12.75;;;7.25;;
76995;SDS011;65929;49.062;10.338;2023-04-06T03:46:55;10.35;;;5.97;;
76995;SDS011;65929;49.062;10.338;2023-04-06T03:47:56;13.55;;;7.13;;
76995;SDS011;65929;49.062;10.338;2023-04-06T03:48:57;15.90;;;7.03;;
76995;SDS011;65929;49.062;10.338;2023-04-06T03:49:58;11.75;;;6.65;;
76995;SDS011;65929;49.062;10.338;2023-04-06T03:50:59;12.50;;;6.57;;
76995;SDS011;65929;49.062;10.338;2023-04-06T03:52:00;11.35;;;6.43;;
76995;SDS011;65929;49.062;10.338;2023-04-06T03:53:01;10.90;;;5.97;;
76995;SDS011;65929;49.062;10.338;2023-04-06T03:54:03;12.25;;;6.53;;
76995;SDS011;65929;49.062;10.338;2023-04-06T03:55:05;11.43;;;6.50;;
76995;SDS011;65929;49.062;10.338;2023-04-06T03:56:08;10.80;;;5.63;;
76995;SDS011;65929;49.062;10.338;2023-04-06T03:57:09;9.60;;;5.70;;
76995;SDS011;65929;49.062;10.338;2023-04-06T03:58:10;11.23;;;6.05;;
76995;SDS011;65929;49.062;10.338;2023-04-06T03:59:11;13.10;;;6.70;;
76995;SDS011;65929;49.062;10.338;2023-04-06T04:00:13;10.48;;;6.05;;
76995;SDS011;65929;49.062;10.338;2023-04-06T04:01:14;12.90;;;6.63;;
76995;SDS011;65929;49.062;10.338;2023-04-06T04:02:15;8.88;;;5.38;;
76995;SDS011;65929;49.062;10.338;2023-04-06T04:03:16;10.95;;;5.82;;
76995;SDS011;65929;49.062;10.338;2023-04-06T04:04:17;10.38;;;5.82;;
76995;SDS011;65929;49.062;10.338;2023-04-06T04:05:19;9.98;;;5.88;;
76995;SDS011;65929;49.062;10.338;2023-04-06T04:06:25;9.38;;;5.20;;
76995;SDS011;65929;49.062;10.338;2023-04-06T04:07:26;10.55;;;5.80;;
76995;SDS011;65929;49.062;10.338;2023-04-06T04:08:27;8.95;;;5.63;;
76995;SDS011;65929;49.062;10.338;2023-04-06T04:09:27;8.70;;;5.65;;
76995;SDS011;65929;49.062;10.338;2023-04-06T04:10:28;10.98;;;6.22;;
76995;SDS011;65929;49.062;10.338;2023-04-06T04:11:31;8.73;;;5.90;;
76995;SDS011;65929;49.062;10.338;2023-04-06T04:12:32;8.95;;;5.78;;
76995;SDS011;65929;49.062;10.338;2023-04-06T04:13:33;9.98;;;5.22;;
76995;SDS011;65929;49.062;10.338;2023-04-06T04:14:34;13.93;;;6.15;;
76995;SDS011;65929;49.062;10.338;2023-04-06T04:15:35;8.48;;;5.65;;
76995;SDS011;65929;49.062;10.338;2023-04-06T04:16:36;11.10;;;5.85;;
76995;SDS011;65929;49.062;10.338;2023-04-06T04:17:39;9.50;;;5.38;;
76995;SDS011;65929;49.062;10.338;2023-04-06T04:18:40;11.52;;;6.43;;
76995;SDS011;65929;49.062;10.338;2023-04-06T04:19:43;12.23;;;6.32;;
76995;SDS011;65929;49.062;10.338;2023-04-06T04:20:45;9.25;;;5.38;;
76995;SDS011;65929;49.062;10.338;2023-04-06T04:21:46;12.13;;;5.97;;
76995;SDS011;65929;49.062;10.338;2023-04-06T04:22:47;13.07;;;6.13;;
76995;SDS011;65929;49.062;10.338;2023-04-06T04:23:48;9.95;;;6.07;;
76995;SDS011;65929;49.062;10.338;2023-04-06T04:24:50;8.65;;;5.70;;
76995;SDS011;65929;49.062;10.338;2023-04-06T04:25:51;9.93;;;5.38;;
76995;SDS011;65929;49.062;10.338;2023-04-06T04:26:53;9.55;;;5.60;;
76995;SDS011;65929;49.062;10.338;2023-04-06T04:27:55;10.82;;;6.20;;
76995;SDS011;65929;49.062;10.338;2023-04-06T04:28:56;11.23;;;5.90;;
76995;SDS011;65929;49.062;10.338;2023-04-06T04:29:57;9.93;;;5.68;;
76995;SDS011;65929;49.062;10.338;2023-04-06T04:30:58;10.02;;;6.47;;
76995;SDS011;65929;49.062;10.338;2023-04-06T04:31:59;12.63;;;6.15;;
76995;SDS011;65929;49.062;10.338;2023-04-06T04:33:01;8.50;;;5.75;;
76995;SDS011;65929;49.062;10.338;2023-04-06T04:34:02;10.43;;;5.82;;
76995;SDS011;65929;49.062;10.338;2023-04-06T04:35:04;10.65;;;5.68;;
76995;SDS011;65929;49.062;10.338;2023-04-06T04:36:05;10.45;;;6.13;;
76995;SDS011;65929;49.062;10.338;2023-04-06T04:37:07;10.25;;;5.55;;
76995;SDS011;65929;49.062;10.338;2023-04-06T04:38:08;11.20;;;6.03;;
76995;SDS011;65929;49.062;10.338;2023-04-06T04:39:09;9.95;;;5.47;;
76995;SDS011;65929;49.062;10.338;2023-04-06T04:40:10;10.88;;;6.57;;
76995;SDS011;65929;49.062;10.338;2023-04-06T04:41:12;11.15;;;6.72;;
76995;SDS011;65929;49.062;10.338;2023-04-06T04:42:14;10.40;;;5.20;;
76995;SDS011;65929;49.062;10.338;2023-04-06T04:43:15;11.13;;;5.88;;
76995;SDS011;65929;49.062;10.338;2023-04-06T04:44:16;11.43;;;6.40;;
76995;SDS011;65929;49.062;10.338;2023-04-06T04:45:17;13.00;;;6.07;;
76995;SDS011;65929;49.062;10.338;2023-04-06T04:46:18;9.48;;;5.50;;
76995;SDS011;65929;49.062;10.338;2023-04-06T04:47:19;10.38;;;5.88;;
76995;SDS011;65929;49.062;10.338;2023-04-06T04:48:20;11.82;;;7.10;;
76995;SDS011;65929;49.062;10.338;2023-04-06T04:49:21;9.65;;;6.25;;
76995;SDS011;65929;49.062;10.338;2023-04-06T04:50:22;10.75;;;6.40;;
76995;SDS011;65929;49.062;10.338;2023-04-06T04:51:23;11.23;;;5.85;;
76995;SDS011;65929;49.062;10.338;2023-04-06T04:52:25;11.52;;;6.18;;
76995;SDS011;65929;49.062;10.338;2023-04-06T04:53:26;11.82;;;6.57;;
76995;SDS011;65929;49.062;10.338;2023-04-06T04:54:27;10.45;;;5.95;;
76995;SDS011;65929;49.062;10.338;2023-04-06T04:55:28;10.32;;;5.60;;
76995;SDS011;65929;49.062;10.338;2023-04-06T04:56:29;11.05;;;6.68;;
76995;SDS011;65929;49.062;10.338;2023-04-06T04:57:31;9.25;;;5.72;;
76995;SDS011;65929;49.062;10.338;2023-04-06T04:58:32;11.25;;;6.50;;
76995;SDS011;65929;49.062;10.338;2023-04-06T04:59:33;10.32;;;5.60;;
76995;SDS011;65929;49.062;10.338;2023-04-06T05:00:35;11.55;;;5.13;;
76995;SDS011;65929;49.062;10.338;2023-04-06T05:01:36;11.00;;;6.43;;
76995;SDS011;65929;49.062;10.338;2023-04-06T05:02:37;11.55;;;5.97;;
76995;SDS011;65929;49.062;10.338;2023-04-06T05:03:39;8.98;;;5.90;;
76995;SDS011;65929;49.062;10.338;2023-04-06T05:04:40;10.80;;;5.88;;
76995;SDS011;65929;49.062;10.338;2023-04-06T05:05:41;7.40;;;5.65;;
76995;SDS011;65929;49.062;10.338;2023-04-06T05:06:42;12.23;;;6.55;;
76995;SDS011;65929;49.062;10.338;2023-04-06T05:07:43;8.80;;;5.50;;
76995;SDS011;65929;49.062;10.338;2023-04-06T05:08:44;10.45;;;5.95;;
76995;SDS011;65929;49.062;10.338;2023-04-06T05:09:45;12.10;;;5.70;;
76995;SDS011;65929;49.062;10.338;2023-04-06T05:10:47;9.77;;;6.60;;
76995;SDS011;65929;49.062;10.338;2023-04-06T05:11:48;12.13;;;5.68;;
76995;SDS011;65929;49.062;10.338;2023-04-06T05:12:51;12.38;;;6.20;;
76995;SDS011;65929;49.062;10.338;2023-04-06T05:13:52;9.98;;;5.68;;
76995;SDS011;65929;49.062;10.338;2023-04-06T05:14:54;11.60;;;6.55;;
76995;SDS011;65929;49.062;10.338;2023-04-06T05:15:55;9.88;;;5.78;;
76995;SDS011;65929;49.062;10.338;2023-04-06T05:16:56;12.82;;;6.00;;
76995;SDS011;65929;49.062;10.338;2023-04-06T05:17:57;8.98;;;5.72;;
76995;SDS011;65929;49.062;10.338;2023-04-06T05:18:58;10.50;;;6.45;;
76995;SDS011;65929;49.062;10.338;2023-04-06T05:19:59;14.98;;;7.25;;
76995;SDS011;65929;49.062;10.338;2023-04-06T05:21:00;9.38;;;6.30;;
76995;SDS011;65929;49.062;10.338;2023-04-06T05:22:01;11.82;;;6.50;;
76995;SDS011;65929;49.062;10.338;2023-04-06T05:23:02;11.13;;;6.35;;
76995;SDS011;65929;49.062;10.338;2023-04-06T05:24:03;9.75;;;5.90;;
76995;SDS011;65929;49.062;10.338;2023-04-06T05:25:05;10.93;;;6.32;;
76995;SDS011;65929;49.062;10.338;2023-04-06T05:26:06;9.93;;;5.55;;
76995;SDS011;65929;49.062;10.338;2023-04-06T05:27:07;11.65;;;6.40;;
76995;SDS011;65929;49.062;10.338;2023-04-06T05:28:09;10.43;;;6.00;;
76995;SDS011;65929;49.062;10.338;2023-04-06T05:29:10;11.07;;;6.15;;
76995;SDS011;65929;49.062;10.338;2023-04-06T05:30:11;9.05;;;5.53;;
76995;SDS011;65929;49.062;10.338;2023-04-06T05:31:13;12.30;;;6.53;;
76995;SDS011;65929;49.062;10.338;2023-04-06T05:32:14;9.80;;;6.40;;
76995;SDS011;65929;49.062;10.338;2023-04-06T05:33:16;10.00;;;5.97;;
76995;SDS011;65929;49.062;10.338;2023-04-06T05:34:17;12.07;;;7.10;;
76995;SDS011;65929;49.062;10.338;2023-04-06T05:35:18;9.88;;;5.72;;
76995;SDS011;65929;49.062;10.338;2023-04-06T05:36:19;10.75;;;6.20;;
76995;SDS011;65929;49.062;10.338;2023-04-06T05:37:20;11.25;;;6.18;;
76995;SDS011;65929;49.062;10.338;2023-04-06T05:38:21;11.73;;;7.25;;
76995;SDS011;65929;49.062;10.338;2023-04-06T05:39:22;10.70;;;6.30;;
76995;SDS011;65929;49.062;10.338;2023-04-06T05:40:23;9.77;;;6.05;;
76995;SDS011;65929;49.062;10.338;2023-04-06T05:41:24;13.30;;;7.45;;
76995;SDS011;65929;49.062;10.338;2023-04-06T05:42:26;12.20;;;6.95;;
76995;SDS011;65929;49.062;10.338;2023-04-06T05:43:28;12.88;;;6.38;;
76995;SDS011;65929;49.062;10.338;2023-04-06T05:44:29;8.85;;;5.75;;
76995;SDS011;65929;49.062;10.338;2023-04-06T05:45:30;12.73;;;6.28;;
76995;SDS011;65929;49.062;10.338;2023-04-06T05:46:31;10.05;;;5.85;;
76995;SDS011;65929;49.062;10.338;2023-04-06T05:47:32;11.57;;;6.55;;
76995;SDS011;65929;49.062;10.338;2023-04-06T05:48:33;10.85;;;6.47;;
76995;SDS011;65929;49.062;10.338;2023-04-06T05:49:35;10.65;;;7.15;;
76995;SDS011;65929;49.062;10.338;2023-04-06T05:50:36;11.25;;;6.60;;
76995;SDS011;65929;49.062;10.338;2023-04-06T05:51:37;11.13;;;7.25;;
76995;SDS011;65929;49.062;10.338;2023-04-06T05:52:38;11.60;;;6.78;;
76995;SDS011;65929;49.062;10.338;2023-04-06T05:53:39;17.42;;;6.30;;
76995;SDS011;65929;49.062;10.338;2023-04-06T05:54:40;13.18;;;6.93;;
76995;SDS011;65929;49.062;10.338;2023-04-06T05:55:41;12.85;;;6.93;;
76995;SDS011;65929;49.062;10.338;2023-04-06T05:56:42;10.40;;;6.68;;
76995;SDS011;65929;49.062;10.338;2023-04-06T05:57:43;11.93;;;7.03;;
76995;SDS011;65929;49.062;10.338;2023-04-06T05:58:45;12.05;;;6.72;;
76995;SDS011;65929;49.062;10.338;2023-04-06T05:59:46;14.15;;;7.45;;
76995;SDS011;65929;49.062;10.338;2023-04-06T06:00:48;13.10;;;8.02;;